sensor_id;sensor_type;location;lat;lon;timestamp;temperature;humidity
66962;HTU21D;53897;51.126;5.868;2023-12-14T00:00:14;22.31;44.86
66962;HTU21D;53897;51.126;5.868;2023-12-14T00:02:40;22.28;44.83
66962;HTU21D;53897;51.126;5.868;2023-12-14T00:05:06;22.27;44.83
66962;HTU21D;53897;51.126;5.868;2023-12-14T00:07:32;22.25;44.83
66962;HTU21D;53897;51.126;5.868;2023-12-14T00:09:57;22.23;44.81
66962;HTU21D;53897;51.126;5.868;2023-12-14T00:12:23;22.22;44.80
66962;HTU21D;53897;51.126;5.868;2023-12-14T00:14:49;22.20;44.79
66962;HTU21D;53897;51.126;5.868;2023-12-14T00:17:14;22.20;44.80
66962;HTU21D;53897;51.126;5.868;2023-12-14T00:19:40;22.18;44.77
66962;HTU21D;53897;51.126;5.868;2023-12-14T00:22:06;22.19;44.71
66962;HTU21D;53897;51.126;5.868;2023-12-14T00:24:31;22.16;44.70
66962;HTU21D;53897;51.126;5.868;2023-12-14T00:26:57;22.13;44.72
66962;HTU21D;53897;51.126;5.868;2023-12-14T00:29:22;22.11;44.73
66962;HTU21D;53897;51.126;5.868;2023-12-14T00:31:49;22.11;44.73
66962;HTU21D;53897;51.126;5.868;2023-12-14T00:34:14;22.08;44.73
66962;HTU21D;53897;51.126;5.868;2023-12-14T00:36:40;22.08;44.71
66962;HTU21D;53897;51.126;5.868;2023-12-14T00:39:06;22.07;44.72
66962;HTU21D;53897;51.126;5.868;2023-12-14T00:41:31;22.06;44.73
66962;HTU21D;53897;51.126;5.868;2023-12-14T00:43:57;22.04;44.71
66962;HTU21D;53897;51.126;5.868;2023-12-14T00:46:23;22.02;44.70
66962;HTU21D;53897;51.126;5.868;2023-12-14T00:48:48;22.02;44.70
66962;HTU21D;53897;51.126;5.868;2023-12-14T00:51:14;21.99;44.67
66962;HTU21D;53897;51.126;5.868;2023-12-14T00:53:40;21.97;44.67
66962;HTU21D;53897;51.126;5.868;2023-12-14T00:56:08;21.98;44.67
66962;HTU21D;53897;51.126;5.868;2023-12-14T00:58:33;21.96;44.66
66962;HTU21D;53897;51.126;5.868;2023-12-14T01:00:59;21.95;44.61
66962;HTU21D;53897;51.126;5.868;2023-12-14T01:03:25;21.93;44.61
66962;HTU21D;53897;51.126;5.868;2023-12-14T01:05:50;21.92;44.61
66962;HTU21D;53897;51.126;5.868;2023-12-14T01:08:16;21.91;44.59
66962;HTU21D;53897;51.126;5.868;2023-12-14T01:10:43;21.90;44.58
66962;HTU21D;53897;51.126;5.868;2023-12-14T01:13:09;21.89;44.54
66962;HTU21D;53897;51.126;5.868;2023-12-14T01:15:35;21.88;44.55
66962;HTU21D;53897;51.126;5.868;2023-12-14T01:18:00;21.87;44.54
66962;HTU21D;53897;51.126;5.868;2023-12-14T01:20:26;21.84;44.53
66962;HTU21D;53897;51.126;5.868;2023-12-14T01:22:52;21.83;44.51
66962;HTU21D;53897;51.126;5.868;2023-12-14T01:25:18;21.83;44.51
66962;HTU21D;53897;51.126;5.868;2023-12-14T01:27:44;21.81;44.51
66962;HTU21D;53897;51.126;5.868;2023-12-14T01:30:10;21.80;44.50
66962;HTU21D;53897;51.126;5.868;2023-12-14T01:32:35;21.79;44.48
66962;HTU21D;53897;51.126;5.868;2023-12-14T01:35:01;21.77;44.47
66962;HTU21D;53897;51.126;5.868;2023-12-14T01:37:27;21.75;44.46
66962;HTU21D;53897;51.126;5.868;2023-12-14T01:39:53;21.76;44.45
66962;HTU21D;53897;51.126;5.868;2023-12-14T01:42:18;21.75;44.45
66962;HTU21D;53897;51.126;5.868;2023-12-14T01:44:44;21.73;44.45
66962;HTU21D;53897;51.126;5.868;2023-12-14T01:47:10;21.73;44.43
66962;HTU21D;53897;51.126;5.868;2023-12-14T01:49:35;21.69;44.42
66962;HTU21D;53897;51.126;5.868;2023-12-14T01:52:01;21.69;44.44
66962;HTU21D;53897;51.126;5.868;2023-12-14T01:54:27;21.67;44.42
66962;HTU21D;53897;51.126;5.868;2023-12-14T01:56:52;21.67;44.43
66962;HTU21D;53897;51.126;5.868;2023-12-14T01:59:19;21.66;44.40
66962;HTU21D;53897;51.126;5.868;2023-12-14T02:01:51;21.63;44.41
66962;HTU21D;53897;51.126;5.868;2023-12-14T02:04:17;21.64;44.40
66962;HTU21D;53897;51.126;5.868;2023-12-14T02:06:43;21.61;44.38
66962;HTU21D;53897;51.126;5.868;2023-12-14T02:09:09;21.61;44.39
66962;HTU21D;53897;51.126;5.868;2023-12-14T02:11:36;21.60;44.38
66962;HTU21D;53897;51.126;5.868;2023-12-14T02:14:06;21.58;44.38
66962;HTU21D;53897;51.126;5.868;2023-12-14T02:16:33;21.58;44.38
66962;HTU21D;53897;51.126;5.868;2023-12-14T02:18:59;21.58;44.37
66962;HTU21D;53897;51.126;5.868;2023-12-14T02:21:25;21.57;44.34
66962;HTU21D;53897;51.126;5.868;2023-12-14T02:23:50;21.55;44.35
66962;HTU21D;53897;51.126;5.868;2023-12-14T02:26:16;21.53;44.35
66962;HTU21D;53897;51.126;5.868;2023-12-14T02:28:42;21.52;44.34
66962;HTU21D;53897;51.126;5.868;2023-12-14T02:31:07;21.51;44.35
66962;HTU21D;53897;51.126;5.868;2023-12-14T02:33:33;21.51;44.34
66962;HTU21D;53897;51.126;5.868;2023-12-14T02:35:59;21.49;44.35
66962;HTU21D;53897;51.126;5.868;2023-12-14T02:38:25;21.47;44.33
66962;HTU21D;53897;51.126;5.868;2023-12-14T02:40:50;21.46;44.32
66962;HTU21D;53897;51.126;5.868;2023-12-14T02:43:19;21.46;44.30
66962;HTU21D;53897;51.126;5.868;2023-12-14T02:45:45;21.44;44.29
66962;HTU21D;53897;51.126;5.868;2023-12-14T02:48:11;21.44;44.29
66962;HTU21D;53897;51.126;5.868;2023-12-14T02:50:37;21.43;44.26
66962;HTU21D;53897;51.126;5.868;2023-12-14T02:53:03;21.42;44.26
66962;HTU21D;53897;51.126;5.868;2023-12-14T02:55:29;21.40;44.26
66962;HTU21D;53897;51.126;5.868;2023-12-14T02:57:54;21.40;44.25
66962;HTU21D;53897;51.126;5.868;2023-12-14T03:00:20;21.38;44.25
66962;HTU21D;53897;51.126;5.868;2023-12-14T03:02:46;21.38;44.25
66962;HTU21D;53897;51.126;5.868;2023-12-14T03:05:11;21.36;44.25
66962;HTU21D;53897;51.126;5.868;2023-12-14T03:07:37;21.36;44.25
66962;HTU21D;53897;51.126;5.868;2023-12-14T03:10:04;21.35;44.24
66962;HTU21D;53897;51.126;5.868;2023-12-14T03:12:29;21.34;44.25
66962;HTU21D;53897;51.126;5.868;2023-12-14T03:14:55;21.33;44.24
66962;HTU21D;53897;51.126;5.868;2023-12-14T03:17:21;21.33;44.22
66962;HTU21D;53897;51.126;5.868;2023-12-14T03:19:47;21.32;44.21
66962;HTU21D;53897;51.126;5.868;2023-12-14T03:22:12;21.31;44.22
66962;HTU21D;53897;51.126;5.868;2023-12-14T03:24:38;21.29;44.22
66962;HTU21D;53897;51.126;5.868;2023-12-14T03:27:04;21.29;44.22
66962;HTU21D;53897;51.126;5.868;2023-12-14T03:29:30;21.28;44.22
66962;HTU21D;53897;51.126;5.868;2023-12-14T03:31:57;21.28;44.22
66962;HTU21D;53897;51.126;5.868;2023-12-14T03:34:23;21.25;44.21
66962;HTU21D;53897;51.126;5.868;2023-12-14T03:36:49;21.24;44.19
66962;HTU21D;53897;51.126;5.868;2023-12-14T03:39:14;21.24;44.19
66962;HTU21D;53897;51.126;5.868;2023-12-14T03:41:42;21.22;44.18
66962;HTU21D;53897;51.126;5.868;2023-12-14T03:44:08;21.22;44.18
66962;HTU21D;53897;51.126;5.868;2023-12-14T03:46:34;21.21;44.17
66962;HTU21D;53897;51.126;5.868;2023-12-14T03:49:00;21.19;44.17
66962;HTU21D;53897;51.126;5.868;2023-12-14T03:51:26;21.18;44.17
66962;HTU21D;53897;51.126;5.868;2023-12-14T03:53:52;21.18;44.16
66962;HTU21D;53897;51.126;5.868;2023-12-14T03:56:17;21.18;44.18
66962;HTU21D;53897;51.126;5.868;2023-12-14T03:58:43;21.15;44.16
66962;HTU21D;53897;51.126;5.868;2023-12-14T04:01:16;21.16;44.16
66962;HTU21D;53897;51.126;5.868;2023-12-14T04:03:43;21.14;44.17
66962;HTU21D;53897;51.126;5.868;2023-12-14T04:06:08;21.11;44.17
66962;HTU21D;53897;51.126;5.868;2023-12-14T04:08:34;21.11;44.19
66962;HTU21D;53897;51.126;5.868;2023-12-14T04:11:00;21.10;44.18
66962;HTU21D;53897;51.126;5.868;2023-12-14T04:13:25;21.10;44.19
66962;HTU21D;53897;51.126;5.868;2023-12-14T04:15:51;21.08;44.18
66962;HTU21D;53897;51.126;5.868;2023-12-14T04:18:17;21.08;44.19
66962;HTU21D;53897;51.126;5.868;2023-12-14T04:20:42;21.06;44.18
66962;HTU21D;53897;51.126;5.868;2023-12-14T04:23:08;21.07;44.15
66962;HTU21D;53897;51.126;5.868;2023-12-14T04:25:34;21.05;44.14
66962;HTU21D;53897;51.126;5.868;2023-12-14T04:27:59;21.05;44.13
66962;HTU21D;53897;51.126;5.868;2023-12-14T04:30:25;21.03;44.16
66962;HTU21D;53897;51.126;5.868;2023-12-14T04:32:51;21.03;44.16
66962;HTU21D;53897;51.126;5.868;2023-12-14T04:35:17;21.02;44.17
66962;HTU21D;53897;51.126;5.868;2023-12-14T04:37:43;21.01;44.17
66962;HTU21D;53897;51.126;5.868;2023-12-14T04:40:09;20.99;44.17
66962;HTU21D;53897;51.126;5.868;2023-12-14T04:42:35;21.00;44.18
66962;HTU21D;53897;51.126;5.868;2023-12-14T04:45:01;20.98;44.16
66962;HTU21D;53897;51.126;5.868;2023-12-14T04:47:26;20.96;44.14
66962;HTU21D;53897;51.126;5.868;2023-12-14T04:49:52;20.95;44.14
66962;HTU21D;53897;51.126;5.868;2023-12-14T04:52:18;20.98;44.15
66962;HTU21D;53897;51.126;5.868;2023-12-14T04:54:44;20.94;44.14
66962;HTU21D;53897;51.126;5.868;2023-12-14T04:57:09;20.94;44.14
66962;HTU21D;53897;51.126;5.868;2023-12-14T04:59:35;20.92;44.13
66962;HTU21D;53897;51.126;5.868;2023-12-14T05:02:01;20.92;44.12
66962;HTU21D;53897;51.126;5.868;2023-12-14T05:04:26;20.91;44.13
66962;HTU21D;53897;51.126;5.868;2023-12-14T05:06:52;20.90;44.11
66962;HTU21D;53897;51.126;5.868;2023-12-14T05:09:20;20.91;44.13
66962;HTU21D;53897;51.126;5.868;2023-12-14T05:11:46;20.88;44.11
66962;HTU21D;53897;51.126;5.868;2023-12-14T05:14:12;20.87;44.12
66962;HTU21D;53897;51.126;5.868;2023-12-14T05:16:37;20.87;44.13
66962;HTU21D;53897;51.126;5.868;2023-12-14T05:19:03;20.86;44.12
66962;HTU21D;53897;51.126;5.868;2023-12-14T05:21:29;20.85;44.09
66962;HTU21D;53897;51.126;5.868;2023-12-14T05:23:54;20.85;44.12
66962;HTU21D;53897;51.126;5.868;2023-12-14T05:26:20;20.84;44.09
66962;HTU21D;53897;51.126;5.868;2023-12-14T05:28:46;20.83;44.08
66962;HTU21D;53897;51.126;5.868;2023-12-14T05:31:11;20.83;44.07
66962;HTU21D;53897;51.126;5.868;2023-12-14T05:33:38;20.81;44.06
66962;HTU21D;53897;51.126;5.868;2023-12-14T05:36:05;20.80;44.08
66962;HTU21D;53897;51.126;5.868;2023-12-14T05:38:34;20.80;44.06
66962;HTU21D;53897;51.126;5.868;2023-12-14T05:41:00;20.79;44.04
66962;HTU21D;53897;51.126;5.868;2023-12-14T05:43:26;20.78;44.03
66962;HTU21D;53897;51.126;5.868;2023-12-14T05:45:54;20.78;44.03
66962;HTU21D;53897;51.126;5.868;2023-12-14T05:48:19;20.78;44.02
66962;HTU21D;53897;51.126;5.868;2023-12-14T05:50:45;20.77;44.01
66962;HTU21D;53897;51.126;5.868;2023-12-14T05:53:11;20.74;44.01
66962;HTU21D;53897;51.126;5.868;2023-12-14T05:55:37;20.75;44.02
66962;HTU21D;53897;51.126;5.868;2023-12-14T05:58:04;20.74;44.02
66962;HTU21D;53897;51.126;5.868;2023-12-14T06:00:30;20.73;44.00
66962;HTU21D;53897;51.126;5.868;2023-12-14T06:02:57;20.73;44.00
66962;HTU21D;53897;51.126;5.868;2023-12-14T06:05:22;20.73;44.00
66962;HTU21D;53897;51.126;5.868;2023-12-14T06:07:48;20.71;44.01
66962;HTU21D;53897;51.126;5.868;2023-12-14T06:10:14;20.72;44.03
66962;HTU21D;53897;51.126;5.868;2023-12-14T06:12:39;20.72;44.09
66962;HTU21D;53897;51.126;5.868;2023-12-14T06:15:06;20.74;44.11
66962;HTU21D;53897;51.126;5.868;2023-12-14T06:17:31;20.75;44.15
66962;HTU21D;53897;51.126;5.868;2023-12-14T06:19:59;20.76;44.23
66962;HTU21D;53897;51.126;5.868;2023-12-14T06:22:25;20.77;44.28
66962;HTU21D;53897;51.126;5.868;2023-12-14T06:24:51;20.79;44.29
66962;HTU21D;53897;51.126;5.868;2023-12-14T06:27:17;20.79;44.25
66962;HTU21D;53897;51.126;5.868;2023-12-14T06:29:43;20.81;44.07
66962;HTU21D;53897;51.126;5.868;2023-12-14T06:32:09;20.80;44.12
66962;HTU21D;53897;51.126;5.868;2023-12-14T06:34:34;20.83;44.22
66962;HTU21D;53897;51.126;5.868;2023-12-14T06:37:00;20.84;44.31
66962;HTU21D;53897;51.126;5.868;2023-12-14T06:39:27;20.86;44.39
66962;HTU21D;53897;51.126;5.868;2023-12-14T06:41:53;20.88;44.47
66962;HTU21D;53897;51.126;5.868;2023-12-14T06:44:19;20.90;44.50
66962;HTU21D;53897;51.126;5.868;2023-12-14T06:46:44;20.93;44.55
66962;HTU21D;53897;51.126;5.868;2023-12-14T06:49:10;20.96;44.55
66962;HTU21D;53897;51.126;5.868;2023-12-14T06:51:36;21.00;44.61
66962;HTU21D;53897;51.126;5.868;2023-12-14T06:54:01;21.02;44.63
66962;HTU21D;53897;51.126;5.868;2023-12-14T06:56:27;21.06;44.67
66962;HTU21D;53897;51.126;5.868;2023-12-14T06:58:53;21.07;44.67
66962;HTU21D;53897;51.126;5.868;2023-12-14T07:01:19;21.10;44.68
66962;HTU21D;53897;51.126;5.868;2023-12-14T07:03:45;21.13;44.63
66962;HTU21D;53897;51.126;5.868;2023-12-14T07:06:18;21.16;44.64
66962;HTU21D;53897;51.126;5.868;2023-12-14T07:08:44;21.18;44.64
66962;HTU21D;53897;51.126;5.868;2023-12-14T07:11:11;21.19;44.63
66962;HTU21D;53897;51.126;5.868;2023-12-14T07:13:37;21.20;44.64
66962;HTU21D;53897;51.126;5.868;2023-12-14T07:16:07;21.22;44.64
66962;HTU21D;53897;51.126;5.868;2023-12-14T07:18:37;21.27;44.65
66962;HTU21D;53897;51.126;5.868;2023-12-14T07:21:03;21.27;44.61
66962;HTU21D;53897;51.126;5.868;2023-12-14T07:23:29;21.30;44.67
66962;HTU21D;53897;51.126;5.868;2023-12-14T07:25:55;21.32;44.70
66962;HTU21D;53897;51.126;5.868;2023-12-14T07:28:21;21.34;44.75
66962;HTU21D;53897;51.126;5.868;2023-12-14T07:30:47;21.36;44.83
66962;HTU21D;53897;51.126;5.868;2023-12-14T07:33:13;21.39;44.91
66962;HTU21D;53897;51.126;5.868;2023-12-14T07:35:39;21.42;44.96
66962;HTU21D;53897;51.126;5.868;2023-12-14T07:38:05;21.46;45.03
66962;HTU21D;53897;51.126;5.868;2023-12-14T07:40:30;21.47;45.09
66962;HTU21D;53897;51.126;5.868;2023-12-14T07:42:56;21.51;45.09
66962;HTU21D;53897;51.126;5.868;2023-12-14T07:45:22;21.53;45.06
66962;HTU21D;53897;51.126;5.868;2023-12-14T07:47:47;21.57;45.09
66962;HTU21D;53897;51.126;5.868;2023-12-14T07:50:13;21.59;45.09
66962;HTU21D;53897;51.126;5.868;2023-12-14T07:52:39;21.63;45.12
66962;HTU21D;53897;51.126;5.868;2023-12-14T07:55:06;21.65;45.06
66962;HTU21D;53897;51.126;5.868;2023-12-14T07:57:32;21.69;45.05
66962;HTU21D;53897;51.126;5.868;2023-12-14T07:59:57;21.72;45.07
66962;HTU21D;53897;51.126;5.868;2023-12-14T08:02:23;21.74;45.09
66962;HTU21D;53897;51.126;5.868;2023-12-14T08:04:49;21.76;45.12
66962;HTU21D;53897;51.126;5.868;2023-12-14T08:07:14;21.79;45.11
66962;HTU21D;53897;51.126;5.868;2023-12-14T08:09:40;21.81;45.14
66962;HTU21D;53897;51.126;5.868;2023-12-14T08:12:06;21.85;45.14
66962;HTU21D;53897;51.126;5.868;2023-12-14T08:14:32;21.88;45.09
66962;HTU21D;53897;51.126;5.868;2023-12-14T08:17:00;21.90;45.15
66962;HTU21D;53897;51.126;5.868;2023-12-14T08:19:25;21.92;45.11
66962;HTU21D;53897;51.126;5.868;2023-12-14T08:21:51;21.95;44.74
66962;HTU21D;53897;51.126;5.868;2023-12-14T08:24:17;21.96;44.54
66962;HTU21D;53897;51.126;5.868;2023-12-14T08:26:43;21.96;44.43
66962;HTU21D;53897;51.126;5.868;2023-12-14T08:29:09;21.97;44.40
66962;HTU21D;53897;51.126;5.868;2023-12-14T08:31:34;21.98;44.46
66962;HTU21D;53897;51.126;5.868;2023-12-14T08:34:00;21.99;44.52
66962;HTU21D;53897;51.126;5.868;2023-12-14T08:36:26;22.01;44.54
66962;HTU21D;53897;51.126;5.868;2023-12-14T08:38:52;22.03;44.49
66962;HTU21D;53897;51.126;5.868;2023-12-14T08:41:17;22.03;44.48
66962;HTU21D;53897;51.126;5.868;2023-12-14T08:43:43;22.05;44.45
66962;HTU21D;53897;51.126;5.868;2023-12-14T08:46:09;22.06;44.40
66962;HTU21D;53897;51.126;5.868;2023-12-14T08:48:35;22.08;44.30
66962;HTU21D;53897;51.126;5.868;2023-12-14T08:51:01;22.09;44.35
66962;HTU21D;53897;51.126;5.868;2023-12-14T08:53:27;22.11;44.42
66962;HTU21D;53897;51.126;5.868;2023-12-14T08:55:54;22.12;44.37
66962;HTU21D;53897;51.126;5.868;2023-12-14T08:58:19;22.13;44.35
66962;HTU21D;53897;51.126;5.868;2023-12-14T09:00:46;22.16;44.37
66962;HTU21D;53897;51.126;5.868;2023-12-14T09:03:12;22.18;44.29
66962;HTU21D;53897;51.126;5.868;2023-12-14T09:05:37;22.19;44.35
66962;HTU21D;53897;51.126;5.868;2023-12-14T09:08:07;22.20;44.34
66962;HTU21D;53897;51.126;5.868;2023-12-14T09:10:33;22.20;44.29
66962;HTU21D;53897;51.126;5.868;2023-12-14T09:12:59;22.21;44.19
66962;HTU21D;53897;51.126;5.868;2023-12-14T09:15:25;22.21;44.19
66962;HTU21D;53897;51.126;5.868;2023-12-14T09:17:51;22.22;44.20
66962;HTU21D;53897;51.126;5.868;2023-12-14T09:20:17;22.23;44.21
66962;HTU21D;53897;51.126;5.868;2023-12-14T09:22:42;22.23;44.25
66962;HTU21D;53897;51.126;5.868;2023-12-14T09:25:08;22.22;44.29
66962;HTU21D;53897;51.126;5.868;2023-12-14T09:27:35;22.23;44.28
66962;HTU21D;53897;51.126;5.868;2023-12-14T09:30:00;22.25;44.35
66962;HTU21D;53897;51.126;5.868;2023-12-14T09:32:26;22.25;44.37
66962;HTU21D;53897;51.126;5.868;2023-12-14T09:34:52;22.26;44.28
66962;HTU21D;53897;51.126;5.868;2023-12-14T09:37:22;22.29;44.28
66962;HTU21D;53897;51.126;5.868;2023-12-14T09:39:47;22.31;44.24
66962;HTU21D;53897;51.126;5.868;2023-12-14T09:42:18;22.33;44.30
66962;HTU21D;53897;51.126;5.868;2023-12-14T09:44:48;22.34;44.30
66962;HTU21D;53897;51.126;5.868;2023-12-14T09:47:14;22.37;44.23
66962;HTU21D;53897;51.126;5.868;2023-12-14T09:49:41;22.39;44.23
66962;HTU21D;53897;51.126;5.868;2023-12-14T09:52:09;22.40;44.20
66962;HTU21D;53897;51.126;5.868;2023-12-14T09:54:35;22.41;44.14
66962;HTU21D;53897;51.126;5.868;2023-12-14T09:57:00;22.43;44.13
66962;HTU21D;53897;51.126;5.868;2023-12-14T09:59:26;22.46;44.14
66962;HTU21D;53897;51.126;5.868;2023-12-14T10:01:52;22.44;44.16
66962;HTU21D;53897;51.126;5.868;2023-12-14T10:04:19;22.48;44.19
66962;HTU21D;53897;51.126;5.868;2023-12-14T10:06:47;22.50;44.22
66962;HTU21D;53897;51.126;5.868;2023-12-14T10:09:13;22.52;44.22
66962;HTU21D;53897;51.126;5.868;2023-12-14T10:11:42;22.54;44.21
66962;HTU21D;53897;51.126;5.868;2023-12-14T10:14:28;22.55;44.21
66962;HTU21D;53897;51.126;5.868;2023-12-14T10:16:55;22.56;44.25
66962;HTU21D;53897;51.126;5.868;2023-12-14T10:19:20;22.57;44.25
66962;HTU21D;53897;51.126;5.868;2023-12-14T10:21:47;22.60;44.25
66962;HTU21D;53897;51.126;5.868;2023-12-14T10:24:13;22.61;44.21
66962;HTU21D;53897;51.126;5.868;2023-12-14T10:26:39;22.62;44.20
66962;HTU21D;53897;51.126;5.868;2023-12-14T10:29:06;22.62;44.18
66962;HTU21D;53897;51.126;5.868;2023-12-14T10:31:32;22.64;44.16
66962;HTU21D;53897;51.126;5.868;2023-12-14T10:34:06;22.65;44.13
66962;HTU21D;53897;51.126;5.868;2023-12-14T10:36:33;22.66;44.07
66962;HTU21D;53897;51.126;5.868;2023-12-14T10:39:00;22.65;44.10
66962;HTU21D;53897;51.126;5.868;2023-12-14T10:41:27;22.67;44.12
66962;HTU21D;53897;51.126;5.868;2023-12-14T10:43:56;22.68;44.17
66962;HTU21D;53897;51.126;5.868;2023-12-14T10:46:25;22.69;44.22
66962;HTU21D;53897;51.126;5.868;2023-12-14T10:48:53;22.71;44.27
66962;HTU21D;53897;51.126;5.868;2023-12-14T10:51:22;22.70;44.29
66962;HTU21D;53897;51.126;5.868;2023-12-14T10:53:49;22.71;44.25
66962;HTU21D;53897;51.126;5.868;2023-12-14T10:56:18;22.71;44.13
66962;HTU21D;53897;51.126;5.868;2023-12-14T10:58:55;22.73;44.15
66962;HTU21D;53897;51.126;5.868;2023-12-14T11:01:23;22.73;44.17
66962;HTU21D;53897;51.126;5.868;2023-12-14T11:03:54;22.75;44.17
66962;HTU21D;53897;51.126;5.868;2023-12-14T11:06:32;22.75;44.16
66962;HTU21D;53897;51.126;5.868;2023-12-14T11:09:01;22.77;44.17
66962;HTU21D;53897;51.126;5.868;2023-12-14T11:14:19;22.79;44.19
66962;HTU21D;53897;51.126;5.868;2023-12-14T11:16:48;22.79;44.15
66962;HTU21D;53897;51.126;5.868;2023-12-14T11:24:23;22.80;44.22
66962;HTU21D;53897;51.126;5.868;2023-12-14T11:26:51;22.82;44.27
66962;HTU21D;53897;51.126;5.868;2023-12-14T11:29:18;22.83;44.33
66962;HTU21D;53897;51.126;5.868;2023-12-14T11:31:45;22.84;44.40
66962;HTU21D;53897;51.126;5.868;2023-12-14T11:34:11;22.84;44.41
66962;HTU21D;53897;51.126;5.868;2023-12-14T11:36:37;22.85;44.42
66962;HTU21D;53897;51.126;5.868;2023-12-14T11:39:10;22.85;44.37
66962;HTU21D;53897;51.126;5.868;2023-12-14T11:41:36;22.85;44.34
66962;HTU21D;53897;51.126;5.868;2023-12-14T11:44:04;22.87;44.29
66962;HTU21D;53897;51.126;5.868;2023-12-14T11:46:30;22.87;44.29
66962;HTU21D;53897;51.126;5.868;2023-12-14T11:48:58;22.88;44.26
66962;HTU21D;53897;51.126;5.868;2023-12-14T11:51:24;22.90;44.25
66962;HTU21D;53897;51.126;5.868;2023-12-14T11:53:55;22.91;44.23
66962;HTU21D;53897;51.126;5.868;2023-12-14T11:56:21;22.91;44.22
66962;HTU21D;53897;51.126;5.868;2023-12-14T11:58:49;22.93;44.16
66962;HTU21D;53897;51.126;5.868;2023-12-14T12:01:18;22.94;44.15
66962;HTU21D;53897;51.126;5.868;2023-12-14T12:03:46;22.94;44.16
66962;HTU21D;53897;51.126;5.868;2023-12-14T12:06:26;22.95;44.22
66962;HTU21D;53897;51.126;5.868;2023-12-14T12:08:55;22.96;44.29
66962;HTU21D;53897;51.126;5.868;2023-12-14T12:11:24;22.98;44.34
66962;HTU21D;53897;51.126;5.868;2023-12-14T12:13:55;22.97;44.33
66962;HTU21D;53897;51.126;5.868;2023-12-14T12:16:21;22.98;44.32
66962;HTU21D;53897;51.126;5.868;2023-12-14T12:18:47;22.99;44.31
66962;HTU21D;53897;51.126;5.868;2023-12-14T12:21:13;22.99;44.29
66962;HTU21D;53897;51.126;5.868;2023-12-14T12:23:39;23.01;44.25
66962;HTU21D;53897;51.126;5.868;2023-12-14T12:26:08;23.01;44.22
66962;HTU21D;53897;51.126;5.868;2023-12-14T12:28:33;23.02;44.22
66962;HTU21D;53897;51.126;5.868;2023-12-14T12:30:59;23.01;44.22
66962;HTU21D;53897;51.126;5.868;2023-12-14T12:33:25;23.01;44.19
66962;HTU21D;53897;51.126;5.868;2023-12-14T12:35:52;23.03;44.18
66962;HTU21D;53897;51.126;5.868;2023-12-14T12:38:17;23.05;44.15
66962;HTU21D;53897;51.126;5.868;2023-12-14T12:40:44;23.05;44.13
66962;HTU21D;53897;51.126;5.868;2023-12-14T12:43:10;23.06;44.10
66962;HTU21D;53897;51.126;5.868;2023-12-14T12:45:36;23.06;44.04
66962;HTU21D;53897;51.126;5.868;2023-12-14T12:48:03;23.07;44.00
66962;HTU21D;53897;51.126;5.868;2023-12-14T12:50:29;23.06;43.97
66962;HTU21D;53897;51.126;5.868;2023-12-14T12:52:55;23.06;43.94
66962;HTU21D;53897;51.126;5.868;2023-12-14T12:55:21;23.07;43.92
66962;HTU21D;53897;51.126;5.868;2023-12-14T12:57:48;23.07;43.90
66962;HTU21D;53897;51.126;5.868;2023-12-14T13:00:14;23.08;43.88
66962;HTU21D;53897;51.126;5.868;2023-12-14T13:02:42;23.09;43.87
66962;HTU21D;53897;51.126;5.868;2023-12-14T13:05:09;23.10;43.84
66962;HTU21D;53897;51.126;5.868;2023-12-14T13:07:36;23.11;43.82
66962;HTU21D;53897;51.126;5.868;2023-12-14T13:10:06;23.11;43.80
66962;HTU21D;53897;51.126;5.868;2023-12-14T13:12:33;23.11;43.79
66962;HTU21D;53897;51.126;5.868;2023-12-14T13:14:59;23.12;43.71
66962;HTU21D;53897;51.126;5.868;2023-12-14T13:17:26;23.12;43.69
66962;HTU21D;53897;51.126;5.868;2023-12-14T13:19:52;23.12;43.60
66962;HTU21D;53897;51.126;5.868;2023-12-14T13:22:18;23.11;43.48
66962;HTU21D;53897;51.126;5.868;2023-12-14T13:24:45;23.10;43.38
66962;HTU21D;53897;51.126;5.868;2023-12-14T13:27:10;23.12;43.44
66962;HTU21D;53897;51.126;5.868;2023-12-14T13:29:36;23.11;43.42
66962;HTU21D;53897;51.126;5.868;2023-12-14T13:32:02;23.11;43.40
66962;HTU21D;53897;51.126;5.868;2023-12-14T13:34:28;23.10;43.44
66962;HTU21D;53897;51.126;5.868;2023-12-14T13:36:55;23.11;43.44
66962;HTU21D;53897;51.126;5.868;2023-12-14T13:39:20;23.11;43.46
66962;HTU21D;53897;51.126;5.868;2023-12-14T13:41:47;23.11;43.38
66962;HTU21D;53897;51.126;5.868;2023-12-14T13:44:13;23.11;43.39
66962;HTU21D;53897;51.126;5.868;2023-12-14T13:46:38;23.11;43.40
66962;HTU21D;53897;51.126;5.868;2023-12-14T13:49:04;23.12;43.41
66962;HTU21D;53897;51.126;5.868;2023-12-14T13:51:30;23.12;43.38
66962;HTU21D;53897;51.126;5.868;2023-12-14T13:53:55;23.12;43.33
66962;HTU21D;53897;51.126;5.868;2023-12-14T13:56:21;23.11;43.29
66962;HTU21D;53897;51.126;5.868;2023-12-14T13:58:47;23.11;43.18
66962;HTU21D;53897;51.126;5.868;2023-12-14T14:01:13;23.12;43.13
66962;HTU21D;53897;51.126;5.868;2023-12-14T14:03:41;23.12;43.15
66962;HTU21D;53897;51.126;5.868;2023-12-14T14:06:07;23.11;43.26
66962;HTU21D;53897;51.126;5.868;2023-12-14T14:08:34;23.11;43.27
66962;HTU21D;53897;51.126;5.868;2023-12-14T14:11:01;23.11;43.22
66962;HTU21D;53897;51.126;5.868;2023-12-14T14:13:27;23.12;43.24
66962;HTU21D;53897;51.126;5.868;2023-12-14T14:15:53;23.12;43.32
66962;HTU21D;53897;51.126;5.868;2023-12-14T14:18:18;23.12;43.37
66962;HTU21D;53897;51.126;5.868;2023-12-14T14:20:44;23.12;43.55
66962;HTU21D;53897;51.126;5.868;2023-12-14T14:23:10;23.11;43.81
66962;HTU21D;53897;51.126;5.868;2023-12-14T14:25:36;23.09;43.97
66962;HTU21D;53897;51.126;5.868;2023-12-14T14:28:02;23.08;43.98
66962;HTU21D;53897;51.126;5.868;2023-12-14T14:30:28;23.08;43.80
66962;HTU21D;53897;51.126;5.868;2023-12-14T14:32:53;23.06;43.78
66962;HTU21D;53897;51.126;5.868;2023-12-14T14:35:19;23.05;43.90
66962;HTU21D;53897;51.126;5.868;2023-12-14T14:37:45;23.05;43.98
66962;HTU21D;53897;51.126;5.868;2023-12-14T14:40:14;23.03;44.06
66962;HTU21D;53897;51.126;5.868;2023-12-14T14:42:41;23.01;44.19
66962;HTU21D;53897;51.126;5.868;2023-12-14T14:45:08;22.99;44.34
66962;HTU21D;53897;51.126;5.868;2023-12-14T14:47:34;22.96;44.48
66962;HTU21D;53897;51.126;5.868;2023-12-14T14:50:01;22.94;44.62
66962;HTU21D;53897;51.126;5.868;2023-12-14T14:52:30;22.91;44.73
66962;HTU21D;53897;51.126;5.868;2023-12-14T14:54:56;22.91;44.75
66962;HTU21D;53897;51.126;5.868;2023-12-14T14:57:22;22.90;44.68
66962;HTU21D;53897;51.126;5.868;2023-12-14T14:59:48;22.91;44.67
66962;HTU21D;53897;51.126;5.868;2023-12-14T15:02:14;22.92;44.61
66962;HTU21D;53897;51.126;5.868;2023-12-14T15:04:39;22.92;44.50
66962;HTU21D;53897;51.126;5.868;2023-12-14T15:07:05;22.93;44.44
66962;HTU21D;53897;51.126;5.868;2023-12-14T15:09:31;22.94;44.45
66962;HTU21D;53897;51.126;5.868;2023-12-14T15:11:56;22.94;44.39
66962;HTU21D;53897;51.126;5.868;2023-12-14T15:14:22;22.93;44.45
66962;HTU21D;53897;51.126;5.868;2023-12-14T15:16:48;22.94;44.45